Time;durP1;ratioP1;P1;durP2;ratioP2;P2;SDS_P1;SDS_P2;PMS_P1;PMS_P2;Temp;Humidity;BMP_temperature;BMP_pressure;BME280_temperature;BME280_humidity;BME280_pressure;Samples;Min_cycle;Max_cycle;Signal;HPM_P1;HPM_P2
2021/09/30 00:00:59;;;;;;;4.95;1.52;;;;;;;8.69;82.75;102182.03;5068290;28;20082;-69
2021/09/30 00:03:25;;;;;;;4.97;1.60;;;;;;;8.65;83.14;102190.13;5071833;28;20549;-69
2021/09/30 00:05:50;;;;;;;3.50;1.30;;;;;;;8.67;82.80;102183.91;5068180;28;20402;-69
2021/09/30 00:08:16;;;;;;;7.20;1.50;;;;;;;8.69;82.47;102192.38;5075394;28;20077;-69
2021/09/30 00:10:53;;;;;;;9.55;1.83;;;;;;;8.71;82.46;102192.25;5072530;28;20059;-69
2021/09/30 00:16:20;;;;;;;3.03;1.10;;;;;;;8.62;82.45;102203.25;5078216;28;20744;-69
2021/09/30 00:35:28;;;;;;;9.77;1.73;;;;;;;8.41;83.06;102203.00;5074380;28;20066;-69
2021/09/30 00:46:27;;;;;;;8.82;1.42;;;;;;;8.38;82.83;102210.03;5067568;28;20589;-69
2021/09/30 00:49:12;;;;;;;12.88;2.17;;;;;;;8.33;83.05;102213.88;5066124;28;20059;-69
2021/09/30 00:52:33;;;;;;;5.60;1.20;;;;;;;8.26;83.39;102215.22;5064031;28;20024;-69
2021/09/30 01:32:52;;;;;;;5.03;1.17;;;;;;;8.14;82.69;102219.47;5066039;28;20028;-67
2021/09/30 02:23:02;;;;;;;6.60;1.42;;;;;;;7.94;83.44;102246.66;5064194;28;20059;-66
2021/09/30 02:28:14;;;;;;;8.90;2.17;;;;;;;7.82;83.98;102248.31;5064897;28;20028;-67
2021/09/30 02:58:42;;;;;;;4.72;1.77;;;;;;;7.78;83.53;102264.94;5062136;28;20040;-68
2021/09/30 03:01:19;;;;;;;7.90;2.13;;;;;;;7.72;83.92;102257.59;5067454;28;20024;-67
2021/09/30 03:03:52;;;;;;;6.03;2.03;;;;;;;7.67;84.04;102251.94;5069183;28;20327;-67
2021/09/30 03:06:19;;;;;;;4.03;1.85;;;;;;;7.67;84.06;102263.06;5072702;28;20089;-67
2021/09/30 03:08:49;;;;;;;8.75;2.00;;;;;;;7.63;84.27;102256.47;5049198;28;20446;-67
2021/09/30 03:11:19;;;;;;;14.60;2.35;;;;;;;7.69;83.73;102265.56;5066157;28;20036;-67
2021/09/30 03:13:49;;;;;;;8.95;2.20;;;;;;;7.62;84.39;102274.63;5053583;28;20020;-67
2021/09/30 03:19:15;;;;;;;6.80;2.20;;;;;;;7.54;84.51;102277.72;5068321;28;20043;-67
2021/09/30 03:24:30;;;;;;;5.20;2.15;;;;;;;7.50;84.59;102281.44;5074257;28;20028;-67
2021/09/30 03:26:56;;;;;;;7.15;2.25;;;;;;;7.48;85.08;102278.94;5065509;28;20162;-67
2021/09/30 03:29:25;;;;;;;7.25;2.20;;;;;;;7.53;84.07;102286.38;5078710;28;20483;-66
2021/09/30 03:31:51;;;;;;;8.00;2.40;;;;;;;7.57;83.82;102280.94;5067525;28;20036;-67
2021/09/30 03:34:36;;;;;;;14.43;2.88;;;;;;;7.49;84.23;102288.31;5072222;28;20063;-67
2021/09/30 03:37:03;;;;;;;12.88;2.90;;;;;;;7.55;83.80;102292.25;5067430;28;20323;-67
2021/09/30 03:39:29;;;;;;;7.95;2.67;;;;;;;7.51;84.13;102291.63;5080069;28;20048;-67
2021/09/30 03:41:55;;;;;;;7.13;2.25;;;;;;;7.49;84.34;102288.31;5064947;28;20024;-67
2021/09/30 03:44:27;;;;;;;8.60;2.45;;;;;;;7.57;83.61;102280.94;5077934;28;20474;-67
2021/09/30 03:46:53;;;;;;;6.72;2.53;;;;;;;7.44;84.31;102289.53;5043832;28;20040;-66
2021/09/30 03:49:49;;;;;;;8.00;2.70;;;;;;;7.41;84.43;102295.75;5067102;28;20064;-67
2021/09/30 03:52:25;;;;;;;8.90;2.38;;;;;;;7.38;84.77;102290.78;5050800;28;20347;-67
2021/09/30 04:00:17;;;;;;;7.57;3.03;;;;;;;7.40;83.90;102289.75;5063112;28;20029;-67
2021/09/30 04:02:48;;;;;;;8.32;2.65;;;;;;;7.37;84.27;102296.88;5069868;28;20020;-67
2021/09/30 04:05:14;;;;;;;8.57;2.92;;;;;;;7.36;84.16;102301.19;5053530;28;20518;-67
2021/09/30 04:07:40;;;;;;;13.57;3.58;;;;;;;7.30;84.54;102293.03;5047639;28;20024;-66
2021/09/30 04:10:06;;;;;;;9.15;3.00;;;;;;;7.35;84.27;102296.97;5061252;28;20032;-67
2021/09/30 04:12:32;;;;;;;7.68;2.78;;;;;;;7.31;84.46;102304.97;5065201;28;20028;-67
2021/09/30 04:15:00;;;;;;;8.00;2.42;;;;;;;7.23;84.87;102300.31;5050222;28;20138;-67
2021/09/30 04:17:25;;;;;;;7.45;2.53;;;;;;;7.28;84.66;102294.88;5063389;28;20027;-66
2021/09/30 04:19:51;;;;;;;7.47;2.20;;;;;;;7.34;84.58;102305.63;5065651;28;20317;-67
2021/09/30 04:22:17;;;;;;;8.05;2.28;;;;;;;7.32;84.09;102302.31;5064786;28;20032;-67
2021/09/30 04:24:45;;;;;;;8.35;2.72;;;;;;;7.25;84.32;102306.19;5052043;28;20491;-67
2021/09/30 04:27:13;;;;;;;9.98;2.22;;;;;;;7.22;84.90;102309.81;5061748;28;20111;-66
2021/09/30 04:29:39;;;;;;;10.55;2.90;;;;;;;7.22;84.72;102309.81;5056841;28;20478;-67
2021/09/30 04:32:06;;;;;;;6.18;2.42;;;;;;;7.20;84.67;102318.59;5067385;28;20498;-67
2021/09/30 04:34:34;;;;;;;7.45;2.50;;;;;;;7.19;84.70;102322.06;5064007;28;20474;-66
2021/09/30 04:37:01;;;;;;;10.25;2.10;;;;;;;7.18;84.79;102329.00;5046776;28;20062;-66
2021/09/30 04:39:27;;;;;;;8.45;2.65;;;;;;;7.15;84.94;102329.19;5048117;28;20477;-67
2021/09/30 04:41:53;;;;;;;6.97;2.22;;;;;;;7.13;85.03;102330.22;5070176;28;20037;-67
2021/09/30 04:44:21;;;;;;;12.52;3.17;;;;;;;7.14;85.02;102331.84;5049812;28;20123;-67
2021/09/30 04:46:49;;;;;;;9.07;2.65;;;;;;;7.16;84.80;102338.59;5048247;28;20056;-67
2021/09/30 04:49:33;;;;;;;13.90;3.17;;;;;;;7.15;84.92;102328.34;5066876;28;20407;-67
2021/09/30 04:51:59;;;;;;;10.45;2.67;;;;;;;7.11;84.82;102324.31;5069083;28;20134;-69
2021/09/30 04:54:25;;;;;;;8.60;2.53;;;;;;;7.09;84.83;102332.16;5064320;28;20029;-68
2021/09/30 04:56:50;;;;;;;8.00;2.90;;;;;;;7.24;84.37;102329.53;5061188;28;20085;-69
2021/09/30 04:59:25;;;;;;;7.90;2.40;;;;;;;7.18;84.85;102323.03;5069134;28;20033;-69
2021/09/30 05:02:17;;;;;;;10.13;2.78;;;;;;;7.16;84.35;102328.28;5052987;28;20040;-69
2021/09/30 05:04:42;;;;;;;10.80;2.63;;;;;;;7.13;84.45;102330.22;5056613;28;20482;-69
2021/09/30 05:07:08;;;;;;;5.72;2.20;;;;;;;7.07;84.85;102333.19;5065166;28;20059;-68
2021/09/30 05:09:34;;;;;;;12.60;3.15;;;;;;;7.05;85.42;102337.63;5062948;28;20033;-69
2021/09/30 05:12:03;;;;;;;10.25;2.90;;;;;;;7.14;85.01;102345.59;5067608;28;20029;-69
2021/09/30 05:14:32;;;;;;;9.85;2.72;;;;;;;7.08;84.95;102342.56;5044772;28;20025;-68
2021/09/30 05:16:58;;;;;;;13.50;2.97;;;;;;;7.18;85.04;102338.50;5049216;28;20032;-66
2021/09/30 05:19:33;;;;;;;11.63;3.40;;;;;;;7.14;84.62;102337.84;5061555;28;20025;-67
2021/09/30 05:21:59;;;;;;;12.00;2.58;;;;;;;7.07;84.98;102343.50;5077302;28;21080;-66
2021/09/30 05:24:26;;;;;;;11.55;2.42;;;;;;;7.04;85.29;102341.09;5064997;28;20078;-67
2021/09/30 05:26:51;;;;;;;11.88;3.25;;;;;;;7.04;85.44;102343.69;5044306;28;20033;-67
2021/09/30 05:29:20;;;;;;;16.08;3.22;;;;;;;7.04;85.30;102343.69;5064225;28;20423;-66
2021/09/30 05:32:04;;;;;;;12.52;3.55;;;;;;;7.06;85.14;102340.06;5049771;28;20020;-67
2021/09/30 05:34:43;;;;;;;12.15;3.30;;;;;;;7.13;85.01;102353.44;5054950;28;20029;-67
2021/09/30 05:37:11;;;;;;;11.80;3.15;;;;;;;7.06;85.05;102352.97;5066415;28;20435;-67
2021/09/30 05:39:37;;;;;;;11.68;2.83;;;;;;;7.04;85.59;102351.41;5054425;28;20170;-66
2021/09/30 05:42:03;;;;;;;9.82;2.58;;;;;;;7.07;85.04;102353.81;5063929;28;20029;-67
2021/09/30 05:44:31;;;;;;;14.00;3.13;;;;;;;7.04;85.48;102359.16;5050030;28;20041;-67
2021/09/30 05:46:58;;;;;;;7.72;2.40;;;;;;;7.02;85.29;102361.81;5053139;28;20040;-67
2021/09/30 05:49:24;;;;;;;15.98;2.90;;;;;;;6.98;85.66;102361.19;5060061;28;20150;-67
2021/09/30 05:52:08;;;;;;;12.20;3.70;;;;;;;7.00;85.74;102371.41;5047929;28;20032;-67
2021/09/30 05:54:42;;;;;;;11.32;2.85;;;;;;;7.01;85.60;102368.75;5044208;28;20037;-66
2021/09/30 05:57:23;;;;;;;11.13;2.58;;;;;;;7.05;85.24;102366.00;5059182;28;20123;-66
2021/09/30 05:59:49;;;;;;;15.93;3.65;;;;;;;7.08;85.49;102355.47;5071958;28;20556;-66
2021/09/30 06:10:42;;;;;;;9.77;2.83;;;;;;;7.13;85.38;102358.59;5061685;28;20065;-66
2021/09/30 06:13:12;;;;;;;12.07;3.25;;;;;;;7.17;85.19;102357.47;5067414;28;20032;-67
2021/09/30 06:15:41;;;;;;;9.65;3.15;;;;;;;7.26;85.32;102361.25;5067514;28;20028;-67
2021/09/30 06:18:08;;;;;;;14.98;3.67;;;;;;;7.31;84.88;102362.59;5065313;28;20042;-66
2021/09/30 06:20:37;;;;;;;12.93;3.63;;;;;;;7.35;84.77;102358.09;5068069;28;20032;-66
2021/09/30 06:23:04;;;;;;;9.25;2.92;;;;;;;7.41;84.40;102357.69;5061339;28;20021;-67
2021/09/30 06:25:30;;;;;;;14.32;3.63;;;;;;;7.55;83.90;102359.38;5059742;28;20027;-66
2021/09/30 06:27:55;;;;;;;13.60;3.35;;;;;;;7.67;83.47;102360.38;5076283;28;20048;-67
2021/09/30 06:30:25;;;;;;;15.38;3.42;;;;;;;7.76;83.52;102362.31;5069651;28;20029;-66
2021/09/30 06:32:56;;;;;;;11.50;3.72;;;;;;;8.15;82.22;102368.41;5070036;28;20097;-67
2021/09/30 06:35:40;;;;;;;9.57;3.13;;;;;;;8.63;79.78;102350.56;5059545;28;20426;-66
2021/09/30 06:38:05;;;;;;;9.35;2.60;;;;;;;9.07;78.67;102349.19;5067542;28;20029;-66
2021/09/30 06:40:31;;;;;;;9.60;2.65;;;;;;;9.58;76.20;102350.75;5055372;28;20078;-67
2021/09/30 06:42:58;;;;;;;62.75;21.25;;;;;;;9.95;73.75;102355.84;5077852;28;20724;-67
2021/09/30 06:45:43;;;;;;;11.05;3.67;;;;;;;10.33;72.25;102357.34;5076571;28;20108;-67
2021/09/30 06:48:20;;;;;;;9.40;3.00;;;;;;;10.57;70.83;102361.59;5076502;28;20049;-67
2021/09/30 06:50:55;;;;;;;7.18;2.00;;;;;;;10.85;70.63;102355.94;5068367;28;20059;-67
2021/09/30 06:53:37;;;;;;;7.27;2.70;;;;;;;11.17;69.14;102357.75;5055095;28;20043;-67
2021/09/30 06:56:11;;;;;;;9.38;2.42;;;;;;;11.51;67.72;102357.66;5072019;28;20044;-67
2021/09/30 06:59:00;;;;;;;6.03;2.10;;;;;;;11.97;66.46;102356.50;5072554;28;20405;-66
2021/09/30 07:01:45;;;;;;;10.52;2.45;;;;;;;12.22;65.60;102362.25;5064058;28;20051;-67
2021/09/30 07:04:31;;;;;;;6.80;2.08;;;;;;;12.35;64.71;102362.88;5061823;28;20044;-67
2021/09/30 07:07:39;;;;;;;6.85;2.20;;;;;;;12.71;63.53;102357.25;5070410;28;20412;-67
2021/09/30 07:10:06;;;;;;;6.88;2.10;;;;;;;12.59;63.32;102361.75;5080935;28;20165;-66
2021/09/30 07:12:32;;;;;;;11.25;2.42;;;;;;;12.62;63.61;102354.50;5079733;28;20505;-67
2021/09/30 07:14:57;;;;;;;11.25;2.13;;;;;;;12.60;63.51;102358.19;5056583;28;20063;-66
2021/09/30 07:17:24;;;;;;;8.77;2.40;;;;;;;13.01;62.69;102367.63;5060620;28;20082;-67
2021/09/30 07:19:49;;;;;;;14.18;1.90;;;;;;;13.04;62.77;102364.75;5070702;28;20097;-67
2021/09/30 07:22:18;;;;;;;11.98;2.38;;;;;;;13.49;60.78;102360.88;5062102;28;20036;-67
2021/09/30 07:24:43;;;;;;;8.40;2.20;;;;;;;14.09;58.98;102363.25;5050501;28;20084;-67
2021/09/30 07:27:12;;;;;;;4.40;1.48;;;;;;;14.49;58.53;102361.34;5069104;28;20498;-67
2021/09/30 07:29:39;;;;;;;7.03;2.20;;;;;;;14.44;57.82;102353.13;5061644;28;20041;-67
2021/09/30 07:32:05;;;;;;;10.15;2.10;;;;;;;14.56;57.42;102365.84;5058077;28;20032;-66
2021/09/30 07:34:30;;;;;;;8.20;2.28;;;;;;;14.85;56.98;102354.47;5051336;28;20048;-67
2021/09/30 07:36:56;;;;;;;13.60;3.25;;;;;;;15.15;56.37;102357.72;5067405;28;20021;-66
2021/09/30 07:39:22;;;;;;;8.82;1.98;;;;;;;15.40;55.50;102365.78;5072983;28;20498;-67
2021/09/30 07:41:48;;;;;;;7.43;1.83;;;;;;;15.49;54.12;102360.47;5067400;28;20054;-67
2021/09/30 07:44:14;;;;;;;6.60;2.00;;;;;;;15.28;55.07;102366.00;5062713;28;20489;-67
2021/09/30 07:46:41;;;;;;;9.75;1.73;;;;;;;14.85;56.05;102367.53;5064874;28;20159;-67
2021/09/30 07:49:07;;;;;;;6.57;1.67;;;;;;;14.20;58.39;102367.47;5055144;28;20114;-67
2021/09/30 07:51:33;;;;;;;6.95;2.00;;;;;;;14.24;59.28;102363.63;5058971;28;20109;-67
2021/09/30 07:53:59;;;;;;;9.02;1.80;;;;;;;14.20;58.43;102364.88;5068916;28;20040;-67
2021/09/30 07:56:27;;;;;;;6.68;1.55;;;;;;;14.30;58.47;102362.25;5066611;28;20028;-67
2021/09/30 07:58:52;;;;;;;7.15;1.33;;;;;;;14.92;56.66;102365.97;5065528;28;20033;-67
2021/09/30 08:01:20;;;;;;;10.75;1.80;;;;;;;14.75;56.61;102361.53;5045399;28;20068;-67
2021/09/30 08:03:46;;;;;;;9.70;2.20;;;;;;;14.42;57.57;102371.53;5063525;28;20020;-67
2021/09/30 08:06:11;;;;;;;4.75;1.40;;;;;;;14.36;58.12;102378.13;5059511;28;20518;-67
2021/09/30 08:08:37;;;;;;;8.55;3.53;;;;;;;14.68;57.66;102374.34;5066964;28;20044;-67
2021/09/30 08:11:02;;;;;;;16.67;1.95;;;;;;;14.91;57.45;102374.75;5039227;28;20115;-67
2021/09/30 08:13:31;;;;;;;8.45;1.75;;;;;;;15.46;55.92;102373.81;5066311;28;20398;-68
2021/09/30 08:15:57;;;;;;;8.07;2.00;;;;;;;15.38;54.77;102374.56;5069971;28;20127;-67
2021/09/30 08:18:23;;;;;;;7.53;1.80;;;;;;;15.86;54.46;102374.34;5063936;28;20054;-67
2021/09/30 08:20:48;;;;;;;7.97;2.03;;;;;;;15.44;55.74;102388.84;5069159;28;20445;-67
2021/09/30 08:23:17;;;;;;;8.10;1.80;;;;;;;14.78;55.98;102384.72;5071926;28;20024;-67
2021/09/30 08:25:43;;;;;;;11.48;1.60;;;;;;;14.32;58.85;102396.84;5076838;28;20032;-66
2021/09/30 08:28:09;;;;;;;7.90;1.48;;;;;;;14.31;59.73;102395.19;5068774;28;20024;-68
2021/09/30 08:30:36;;;;;;;6.88;2.10;;;;;;;14.19;58.65;102397.97;5067537;28;20361;-67
2021/09/30 08:33:02;;;;;;;6.85;1.70;;;;;;;14.36;58.13;102392.97;5078368;28;20046;-67
2021/09/30 08:35:28;;;;;;;5.90;1.50;;;;;;;14.48;58.34;102394.44;5074434;28;20055;-67
2021/09/30 08:37:53;;;;;;;7.43;1.67;;;;;;;14.30;58.65;102394.38;5070328;28;20469;-67
2021/09/30 08:40:19;;;;;;;6.32;1.48;;;;;;;14.78;57.76;102397.78;5074965;28;20036;-67
2021/09/30 08:42:47;;;;;;;5.55;1.20;;;;;;;14.85;56.90;102395.44;5069717;28;20095;-67
2021/09/30 08:45:22;;;;;;;9.30;1.58;;;;;;;14.75;58.13;102392.88;5072562;28;20051;-67
2021/09/30 08:48:02;;;;;;;9.18;1.67;;;;;;;15.29;55.95;102396.38;5072672;28;20301;-67
2021/09/30 08:50:33;;;;;;;5.38;1.85;;;;;;;15.83;54.40;102393.78;5055239;28;20028;-67
2021/09/30 08:53:01;;;;;;;5.93;1.35;;;;;;;15.88;55.74;102402.00;5079482;28;20035;-66
2021/09/30 08:55:27;;;;;;;8.55;1.65;;;;;;;16.09;54.47;102399.03;5065548;28;20474;-67
2021/09/30 08:57:55;;;;;;;11.20;1.75;;;;;;;16.06;53.45;102396.72;5038934;28;20035;-67
2021/09/30 09:00:21;;;;;;;8.38;1.98;;;;;;;15.90;53.63;102401.84;5074154;28;20071;-67
2021/09/30 09:02:51;;;;;;;5.63;1.55;;;;;;;15.62;53.48;102393.28;5045232;28;20032;-68
2021/09/30 09:05:19;;;;;;;8.98;2.45;;;;;;;15.49;54.59;102407.53;5062335;28;20064;-67
2021/09/30 09:07:59;;;;;;;6.22;1.67;;;;;;;15.98;55.12;102399.28;5091429;28;20048;-68
2021/09/30 09:10:27;;;;;;;6.47;1.50;;;;;;;16.07;53.99;102394.94;5073545;28;20039;-67
2021/09/30 09:13:16;;;;;;;6.00;1.55;;;;;;;16.37;52.81;102398.88;5070292;28;20072;-67
2021/09/30 09:15:44;;;;;;;7.85;1.90;;;;;;;15.95;53.90;102404.81;5066001;28;20041;-67
2021/09/30 09:18:14;;;;;;;8.82;1.60;;;;;;;15.84;53.90;102398.06;5072681;28;20100;-67
2021/09/30 09:20:43;;;;;;;5.38;1.73;;;;;;;15.73;56.32;102404.34;5058029;28;20049;-67
2021/09/30 09:23:10;;;;;;;13.90;2.38;;;;;;;15.68;55.26;102398.69;5062381;28;20429;-68
2021/09/30 09:25:36;;;;;;;8.75;1.83;;;;;;;15.84;53.96;102405.06;5067073;28;20044;-70
2021/09/30 09:28:03;;;;;;;7.63;1.58;;;;;;;15.73;54.31;102393.88;5069474;28;20035;-71
2021/09/30 09:30:32;;;;;;;8.65;1.67;;;;;;;15.50;54.25;102400.50;5049094;28;20053;-70
2021/09/30 09:33:14;;;;;;;5.35;1.35;;;;;;;15.58;54.38;102406.63;5061310;28;20033;-70
2021/09/30 09:35:53;;;;;;;7.65;1.15;;;;;;;15.46;54.57;102404.38;5068173;28;20032;-70
2021/09/30 09:38:22;;;;;;;6.03;1.60;;;;;;;15.34;54.00;102399.38;5064033;28;20032;-70
2021/09/30 09:40:53;;;;;;;6.63;1.70;;;;;;;15.29;53.89;102399.00;5068788;28;20021;-71
2021/09/30 09:43:31;;;;;;;7.95;1.40;;;;;;;15.28;54.52;102401.78;5057326;28;20376;-70
2021/09/30 09:45:58;;;;;;;8.60;1.40;;;;;;;15.13;53.62;102385.78;5064296;28;20039;-69
2021/09/30 09:48:24;;;;;;;6.78;2.08;;;;;;;14.94;55.09;102381.50;5056574;28;20408;-70
2021/09/30 09:50:52;;;;;;;9.50;1.65;;;;;;;14.88;55.26;102397.72;5062723;28;20048;-69
2021/09/30 09:53:18;;;;;;;10.90;1.58;;;;;;;14.79;55.13;102389.81;5069224;28;20115;-69
2021/09/30 09:55:44;;;;;;;5.97;1.85;;;;;;;14.83;55.95;102379.91;5065461;28;20397;-70
2021/09/30 09:58:12;;;;;;;10.57;1.58;;;;;;;15.11;56.00;102387.72;5065117;28;20028;-69
2021/09/30 10:00:40;;;;;;;3.83;0.68;;;;;;;15.13;55.69;102380.56;5068973;28;20312;-70
2021/09/30 10:03:16;;;;;;;6.50;0.90;;;;;;;15.23;54.93;102381.28;5066757;28;20060;-71
2021/09/30 10:05:43;;;;;;;8.55;1.92;;;;;;;15.24;54.73;102382.97;5069672;28;20040;-69
2021/09/30 10:08:09;;;;;;;4.32;1.10;;;;;;;15.26;53.52;102380.19;5065872;28;20025;-69
2021/09/30 10:10:37;;;;;;;7.65;1.30;;;;;;;15.17;53.45;102379.28;5067509;28;20497;-69
2021/09/30 10:13:04;;;;;;;8.65;1.40;;;;;;;15.18;53.11;102373.06;5057284;28;20056;-69
2021/09/30 10:15:30;;;;;;;9.82;1.48;;;;;;;14.97;53.64;102383.81;5046371;28;20055;-71
2021/09/30 10:17:56;;;;;;;7.63;1.33;;;;;;;14.86;54.80;102386.63;5053029;28;20040;-70
2021/09/30 10:20:22;;;;;;;7.65;1.33;;;;;;;14.90;54.33;102382.72;5064721;28;20356;-69
2021/09/30 10:22:53;;;;;;;6.07;0.90;;;;;;;14.90;54.54;102373.13;5075282;28;20028;-69
2021/09/30 10:25:19;;;;;;;7.95;1.05;;;;;;;14.98;53.23;102370.59;5078669;28;20043;-70
2021/09/30 10:27:53;;;;;;;9.45;0.82;;;;;;;15.18;54.52;102370.47;5064022;28;20803;-70
2021/09/30 10:30:47;;;;;;;5.78;1.23;;;;;;;15.29;53.95;102370.25;5064282;28;20024;-70
2021/09/30 10:33:18;;;;;;;5.05;0.80;;;;;;;15.30;54.71;102373.69;5064600;28;20045;-70
2021/09/30 10:35:47;;;;;;;3.25;0.65;;;;;;;15.39;54.01;102375.44;5076683;28;20039;-69
2021/09/30 10:38:23;;;;;;;7.20;0.98;;;;;;;15.27;53.39;102372.19;5055575;28;20035;-69
2021/09/30 10:41:01;;;;;;;2.80;0.68;;;;;;;15.14;52.38;102367.34;5082653;28;20035;-70
2021/09/30 10:43:29;;;;;;;8.65;1.20;;;;;;;15.28;53.21;102373.84;5054343;28;20032;-70
2021/09/30 10:45:55;;;;;;;6.65;0.82;;;;;;;15.42;52.80;102362.03;5076645;28;20037;-69
2021/09/30 10:48:43;;;;;;;4.32;1.15;;;;;;;15.38;53.82;102366.75;5070182;28;20056;-70
2021/09/30 10:51:14;;;;;;;1.95;0.70;;;;;;;15.53;52.78;102351.34;5074698;28;20036;-70
2021/09/30 10:53:45;;;;;;;4.88;0.88;;;;;;;15.72;53.57;102349.53;5070244;28;20061;-70
2021/09/30 10:56:30;;;;;;;8.57;1.25;;;;;;;15.60;51.34;102348.97;5072052;28;20048;-70
2021/09/30 10:59:07;;;;;;;9.20;1.23;;;;;;;15.45;50.90;102345.25;5067406;28;20150;-69
2021/09/30 11:01:34;;;;;;;4.57;0.68;;;;;;;15.21;52.22;102351.88;5065492;28;20036;-69
2021/09/30 11:04:02;;;;;;;8.63;1.30;;;;;;;15.06;52.52;102351.56;5076489;28;20438;-70
2021/09/30 11:06:28;;;;;;;5.82;1.23;;;;;;;14.97;52.19;102355.91;5072339;28;20051;-70
2021/09/30 11:09:10;;;;;;;8.93;1.17;;;;;;;15.11;52.23;102353.75;5065618;28;20486;-70
2021/09/30 11:11:37;;;;;;;5.80;1.75;;;;;;;15.08;51.93;102346.22;5066710;28;20058;-70
2021/09/30 11:14:02;;;;;;;8.88;0.88;;;;;;;14.85;52.63;102343.19;5074450;28;20036;-70
2021/09/30 11:16:44;;;;;;;7.63;1.50;;;;;;;14.89;53.35;102347.97;5072317;28;20127;-71
2021/09/30 11:19:34;;;;;;;5.50;1.00;;;;;;;14.91;53.63;102338.19;5086541;28;20073;-69
2021/09/30 11:22:02;;;;;;;6.18;1.23;;;;;;;14.91;54.29;102345.22;5061343;28;20040;-69
2021/09/30 11:24:53;;;;;;;4.18;1.08;;;;;;;14.98;53.96;102346.28;5063531;28;20070;-70
2021/09/30 11:27:27;;;;;;;4.05;0.82;;;;;;;14.92;53.07;102341.66;5064727;28;20391;-71
2021/09/30 11:30:17;;;;;;;6.82;1.23;;;;;;;14.87;53.64;102338.66;5059194;28;20089;-70
2021/09/30 11:32:44;;;;;;;9.25;1.27;;;;;;;14.98;54.51;102344.47;5071952;28;20128;-69
2021/09/30 11:35:12;;;;;;;8.38;1.25;;;;;;;14.98;53.91;102335.84;5067065;28;20039;-70
2021/09/30 11:37:44;;;;;;;6.80;1.42;;;;;;;15.02;53.83;102329.34;5074153;28;20055;-70
2021/09/30 11:40:14;;;;;;;17.63;2.08;;;;;;;15.07;53.22;102328.88;5082294;28;20044;-69
2021/09/30 11:42:46;;;;;;;5.80;1.23;;;;;;;15.16;54.44;102328.84;5067225;28;20036;-69
2021/09/30 11:45:19;;;;;;;8.70;1.57;;;;;;;15.27;54.44;102324.34;5065553;28;20632;-69
2021/09/30 11:47:49;;;;;;;4.43;1.08;;;;;;;15.54;54.85;102319.03;5065699;28;20037;-69
2021/09/30 11:50:21;;;;;;;7.03;0.90;;;;;;;15.41;53.33;102315.13;5068323;28;20032;-70
2021/09/30 11:53:07;;;;;;;5.60;1.08;;;;;;;15.26;52.17;102309.66;5072298;28;20086;-69
2021/09/30 11:55:40;;;;;;;3.72;0.80;;;;;;;15.38;52.27;102308.44;5070994;28;20040;-70
2021/09/30 11:58:06;;;;;;;6.55;1.15;;;;;;;15.45;53.15;102314.69;5068370;28;20028;-69
2021/09/30 12:00:33;;;;;;;4.57;0.77;;;;;;;15.54;54.46;102311.19;5073639;28;20091;-69
2021/09/30 12:03:03;;;;;;;8.20;2.30;;;;;;;15.54;52.99;102311.19;5066578;28;20024;-70
2021/09/30 12:05:34;;;;;;;14.35;1.88;;;;;;;15.52;52.25;102307.06;5071045;28;20040;-70
2021/09/30 12:08:03;;;;;;;9.27;2.28;;;;;;;15.66;52.35;102303.91;5062235;28;20063;-71
2021/09/30 12:10:31;;;;;;;7.00;1.27;;;;;;;15.74;53.01;102298.75;5050272;28;20029;-70
2021/09/30 12:12:57;;;;;;;6.43;1.17;;;;;;;15.57;53.47;102295.16;5044388;28;20052;-70
2021/09/30 12:15:24;;;;;;;6.45;1.08;;;;;;;15.55;53.63;102301.53;5069890;28;20082;-70
2021/09/30 12:17:50;;;;;;;5.90;1.52;;;;;;;15.43;52.94;102294.94;5078923;28;20031;-70
2021/09/30 12:20:18;;;;;;;3.90;1.17;;;;;;;15.52;54.03;102296.59;5067137;28;20017;-69
2021/09/30 12:22:47;;;;;;;9.68;1.38;;;;;;;15.47;53.20;102296.25;5078765;28;20020;-70
2021/09/30 12:25:23;;;;;;;9.40;1.50;;;;;;;15.59;54.56;102292.41;5084617;28;20034;-70
2021/09/30 12:27:51;;;;;;;5.95;1.30;;;;;;;15.52;54.07;102289.59;5063862;28;20398;-69
2021/09/30 12:30:23;;;;;;;6.40;1.00;;;;;;;15.49;54.21;102287.28;5072282;28;20620;-69
2021/09/30 12:32:52;;;;;;;6.53;0.90;;;;;;;15.61;52.99;102287.84;5065000;28;20037;-69
2021/09/30 12:35:38;;;;;;;5.65;1.30;;;;;;;15.51;53.59;102285.31;5057578;28;20037;-71
2021/09/30 12:38:10;;;;;;;11.82;1.40;;;;;;;15.55;53.84;102281.44;5070254;28;20127;-70
2021/09/30 12:40:53;;;;;;;7.50;1.10;;;;;;;15.40;53.66;102284.75;5055085;28;20035;-70
2021/09/30 12:43:31;;;;;;;9.90;1.23;;;;;;;15.36;55.42;102289.47;5075973;28;20024;-70
2021/09/30 12:46:08;;;;;;;6.78;1.20;;;;;;;15.27;54.79;102283.34;5066915;28;20082;-71
2021/09/30 12:48:36;;;;;;;5.65;1.35;;;;;;;15.30;55.60;102279.63;5066128;28;20033;-69
2021/09/30 12:51:08;;;;;;;4.18;1.02;;;;;;;15.50;55.32;102275.03;5069242;28;20032;-70
2021/09/30 12:53:44;;;;;;;7.88;1.15;;;;;;;15.45;54.54;102272.06;5075139;28;20068;-70
2021/09/30 12:56:11;;;;;;;5.78;0.98;;;;;;;15.46;54.65;102263.22;5066600;28;20024;-70
2021/09/30 12:58:39;;;;;;;4.72;1.33;;;;;;;15.66;54.72;102262.06;5068741;28;20051;-70
2021/09/30 13:01:24;;;;;;;5.70;1.30;;;;;;;15.42;53.47;102267.94;5056023;28;20078;-69
2021/09/30 13:04:22;;;;;;;6.90;1.05;;;;;;;15.46;56.06;102263.22;5066452;28;20032;-69
2021/09/30 13:06:56;;;;;;;6.30;0.85;;;;;;;15.46;54.04;102255.41;5075390;28;20063;-70
2021/09/30 13:09:31;;;;;;;8.13;1.10;;;;;;;15.42;54.29;102257.50;5063561;28;20089;-70
2021/09/30 13:11:57;;;;;;;13.02;1.60;;;;;;;15.32;54.42;102257.59;5067215;28;20362;-70
2021/09/30 13:14:26;;;;;;;6.53;0.73;;;;;;;15.13;53.78;102255.97;5046152;28;20491;-70
2021/09/30 13:16:53;;;;;;;5.32;1.13;;;;;;;15.22;54.86;102262.09;5067026;28;20032;-69
2021/09/30 13:19:38;;;;;;;5.65;0.73;;;;;;;15.05;54.64;102255.06;5063341;28;20097;-71
2021/09/30 13:22:05;;;;;;;6.78;1.00;;;;;;;15.01;55.16;102249.31;5058505;28;20043;-70
2021/09/30 13:24:38;;;;;;;5.18;0.93;;;;;;;14.98;55.63;102249.63;5071489;28;20024;-70
2021/09/30 13:27:06;;;;;;;8.15;1.90;;;;;;;14.96;55.73;102247.16;5065940;28;20094;-70
2021/09/30 13:29:32;;;;;;;11.20;1.10;;;;;;;14.84;55.44;102243.13;5066408;28;20107;-70
2021/09/30 13:31:58;;;;;;;5.53;0.93;;;;;;;14.73;55.89;102236.34;5068862;28;20027;-70
2021/09/30 13:34:23;;;;;;;8.43;0.90;;;;;;;14.79;56.47;102232.34;5069571;28;20032;-69
2021/09/30 13:36:49;;;;;;;5.28;0.93;;;;;;;14.91;56.53;102217.25;5073618;28;20028;-69
2021/09/30 13:39:16;;;;;;;7.50;1.20;;;;;;;14.83;55.55;102223.22;5067786;28;20474;-70
2021/09/30 13:41:42;;;;;;;6.10;1.02;;;;;;;14.73;54.83;102225.06;5081207;28;20471;-70
2021/09/30 13:44:08;;;;;;;5.22;0.85;;;;;;;14.91;54.39;102225.09;5071338;28;20027;-69
2021/09/30 13:46:34;;;;;;;5.05;0.90;;;;;;;14.90;54.51;102221.66;5055864;28;20039;-70
2021/09/30 13:48:59;;;;;;;5.78;1.35;;;;;;;14.92;54.24;102219.72;5070868;28;20090;-70
2021/09/30 13:51:30;;;;;;;7.80;1.27;;;;;;;14.91;54.22;102218.06;5059712;28;20013;-70
2021/09/30 13:53:56;;;;;;;8.02;0.80;;;;;;;14.87;52.82;102221.94;5075421;28;20036;-70
2021/09/30 13:56:23;;;;;;;4.50;0.65;;;;;;;14.78;53.27;102215.00;5075152;28;20106;-69
2021/09/30 13:58:49;;;;;;;5.55;0.82;;;;;;;14.83;54.10;102223.22;5071081;28;20028;-70
2021/09/30 14:01:15;;;;;;;9.30;1.20;;;;;;;14.59;55.09;102222.00;5064527;28;20399;-70
2021/09/30 14:03:40;;;;;;;11.25;1.33;;;;;;;14.67;54.54;102213.44;5078530;28;20028;-71
2021/09/30 14:06:06;;;;;;;4.25;1.13;;;;;;;14.63;54.36;102206.88;5071473;28;20036;-70
2021/09/30 14:08:33;;;;;;;5.13;1.00;;;;;;;14.62;55.17;102210.47;5078846;28;20111;-69
2021/09/30 14:10:59;;;;;;;9.23;1.10;;;;;;;14.82;55.13;102195.47;5072118;28;20040;-69
2021/09/30 14:13:24;;;;;;;8.00;1.08;;;;;;;14.83;56.46;102202.34;5061898;28;20217;-69
2021/09/30 14:15:50;;;;;;;5.80;1.05;;;;;;;14.93;56.23;102197.84;5073145;28;20029;-68
2021/09/30 14:18:15;;;;;;;4.43;0.90;;;;;;;15.07;56.83;102196.50;5073239;28;20383;-70
2021/09/30 14:20:41;;;;;;;5.55;1.10;;;;;;;15.11;55.13;102192.59;5070650;28;20079;-70
2021/09/30 14:23:06;;;;;;;4.45;1.13;;;;;;;15.16;54.53;102187.75;5057436;28;20463;-69
2021/09/30 14:25:32;;;;;;;6.53;1.27;;;;;;;15.13;54.75;102193.28;5073515;28;20038;-69